Time;durP1;ratioP1;P1;durP2;ratioP2;P2;SDS_P1;SDS_P2;PMS_P1;PMS_P2;Temp;Humidity;BMP_temperature;BMP_pressure;BME280_temperature;BME280_humidity;BME280_pressure;Samples;Min_cycle;Max_cycle;Signal;HPM_P1;HPM_P2
2022/10/30 00:00:46;;;;;;;23.80;21.27;;;;;;;;;;5062141;28;20426;-82
2022/10/30 00:03:13;;;;;;;23.47;21.60;;;;;;;;;;5062106;28;20471;-84
2022/10/30 00:05:42;;;;;;;22.83;20.83;;;;;;;;;;5059881;28;20425;-83
2022/10/30 00:08:10;;;;;;;25.60;23.40;;;;;;;;;;5060957;28;20419;-83
2022/10/30 00:10:39;;;;;;;23.10;21.50;;;;;;;;;;5059102;28;20422;-83
2022/10/30 00:13:06;;;;;;;22.23;20.73;;;;;;;;;;5058656;28;20466;-82
2022/10/30 00:15:34;;;;;;;22.50;20.70;;;;;;;;;;5059109;28;20447;-82
2022/10/30 00:18:01;;;;;;;22.93;20.73;;;;;;;;;;5059887;28;20421;-83
2022/10/30 00:20:29;;;;;;;23.97;21.80;;;;;;;;;;5059607;28;20426;-83
2022/10/30 00:22:56;;;;;;;23.17;21.30;;;;;;;;;;5059167;28;20471;-84
2022/10/30 00:25:24;;;;;;;24.43;22.40;;;;;;;;;;5060295;28;20412;-84
2022/10/30 00:27:52;;;;;;;23.83;21.83;;;;;;;;;;5059586;28;20430;-83
2022/10/30 00:30:20;;;;;;;24.40;22.53;;;;;;;;;;5059549;28;20418;-84
2022/10/30 00:32:47;;;;;;;23.70;21.70;;;;;;;;;;5058354;28;20466;-84
2022/10/30 00:35:15;;;;;;;24.20;22.10;;;;;;;;;;5059330;28;20797;-84
2022/10/30 00:37:42;;;;;;;23.03;21.10;;;;;;;;;;5059709;28;20923;-83
2022/10/30 00:40:14;;;;;;;23.73;21.70;;;;;;;;;;5059884;28;20450;-83
2022/10/30 00:42:41;;;;;;;23.37;21.57;;;;;;;;;;5058988;28;20404;-84
2022/10/30 00:45:12;;;;;;;23.33;21.23;;;;;;;;;;5058778;28;20447;-83
2022/10/30 00:47:40;;;;;;;23.17;21.37;;;;;;;;;;5059543;28;20486;-83
2022/10/30 00:50:10;;;;;;;24.00;22.00;;;;;;;;;;5059209;28;20471;-83
2022/10/30 00:52:39;;;;;;;24.70;22.00;;;;;;;;;;5058692;28;20446;-84
2022/10/30 00:55:08;;;;;;;23.73;21.40;;;;;;;;;;5059524;28;20426;-83
2022/10/30 00:57:37;;;;;;;23.83;21.83;;;;;;;;;;5059167;28;20442;-83
2022/10/30 01:00:05;;;;;;;23.00;20.90;;;;;;;;;;5058952;28;20431;-84
2022/10/30 01:02:34;;;;;;;23.47;21.30;;;;;;;;;;5058872;28;20452;-84
2022/10/30 01:05:02;;;;;;;24.03;21.77;;;;;;;;;;5059987;28;20421;-85
2022/10/30 01:07:29;;;;;;;23.33;21.40;;;;;;;;;;5058187;28;20447;-84
2022/10/30 01:09:57;;;;;;;24.07;22.17;;;;;;;;;;5063514;28;20459;-84
2022/10/30 01:12:24;;;;;;;22.63;20.70;;;;;;;;;;5062843;28;20488;-84
2022/10/30 01:15:03;;;;;;;23.07;21.20;;;;;;;;;;5063559;28;20418;-84
2022/10/30 01:17:38;;;;;;;25.87;22.73;;;;;;;;;;5063547;28;20443;-84
2022/10/30 01:20:12;;;;;;;22.30;20.70;;;;;;;;;;5064141;28;20412;-84
2022/10/30 01:22:47;;;;;;;23.77;21.50;;;;;;;;;;5063260;28;20428;-84
2022/10/30 01:25:21;;;;;;;23.57;21.50;;;;;;;;;;5063895;28;20406;-84
2022/10/30 01:27:55;;;;;;;23.00;21.33;;;;;;;;;;5063295;28;20433;-84
2022/10/30 01:30:31;;;;;;;24.30;21.90;;;;;;;;;;5063641;28;20418;-84
2022/10/30 01:33:07;;;;;;;23.90;21.60;;;;;;;;;;5062123;28;20462;-84
2022/10/30 01:35:43;;;;;;;23.67;21.23;;;;;;;;;;5063031;28;20900;-84
2022/10/30 01:38:13;;;;;;;23.20;21.40;;;;;;;;;;5063579;28;20405;-84
2022/10/30 01:40:40;;;;;;;22.53;20.90;;;;;;;;;;5062876;28;20429;-84
2022/10/30 01:43:10;;;;;;;23.00;21.10;;;;;;;;;;5062737;28;20830;-84
2022/10/30 01:45:45;;;;;;;23.20;21.63;;;;;;;;;;5062924;28;20451;-84
2022/10/30 01:48:28;;;;;;;22.70;20.73;;;;;;;;;;5063583;28;20433;-84
2022/10/30 01:50:57;;;;;;;22.70;20.90;;;;;;;;;;5063047;28;20436;-85
2022/10/30 01:53:32;;;;;;;23.40;21.10;;;;;;;;;;5062971;28;20485;-84
2022/10/30 01:56:06;;;;;;;22.87;20.80;;;;;;;;;;5062915;28;20409;-84
2022/10/30 01:58:39;;;;;;;22.17;20.10;;;;;;;;;;5062731;28;20444;-84
2022/10/30 02:01:07;;;;;;;22.63;21.00;;;;;;;;;;5061927;28;20470;-84
2022/10/30 02:03:36;;;;;;;22.57;20.87;;;;;;;;;;5062969;28;20467;-83
2022/10/30 02:06:04;;;;;;;22.80;21.00;;;;;;;;;;5061167;28;20803;-84
2022/10/30 02:08:31;;;;;;;21.87;20.20;;;;;;;;;;5062787;28;20458;-83
2022/10/30 02:10:59;;;;;;;22.67;20.77;;;;;;;;;;5061798;28;20421;-85
2022/10/30 02:13:26;;;;;;;22.17;20.67;;;;;;;;;;5062285;28;20468;-84
2022/10/30 02:15:54;;;;;;;22.47;20.17;;;;;;;;;;5062880;28;20426;-84
2022/10/30 02:18:21;;;;;;;22.20;20.60;;;;;;;;;;5062394;28;20434;-83
2022/10/30 02:20:50;;;;;;;21.63;20.00;;;;;;;;;;5061965;28;20432;-85
2022/10/30 02:23:18;;;;;;;22.97;20.60;;;;;;;;;;5061192;28;20831;-84
2022/10/30 02:25:45;;;;;;;22.40;20.43;;;;;;;;;;5062010;28;20445;-83
2022/10/30 02:28:13;;;;;;;22.40;20.43;;;;;;;;;;5062456;28;20435;-84
2022/10/30 02:30:42;;;;;;;21.27;19.80;;;;;;;;;;5061823;28;20430;-84
2022/10/30 02:33:10;;;;;;;22.60;20.87;;;;;;;;;;5060972;28;20486;-84
2022/10/30 02:35:38;;;;;;;22.27;20.70;;;;;;;;;;5062176;28;20459;-84
2022/10/30 02:38:06;;;;;;;23.50;21.33;;;;;;;;;;5062159;28;20421;-84
2022/10/30 02:40:34;;;;;;;23.50;21.07;;;;;;;;;;5061855;28;20430;-85
2022/10/30 02:43:02;;;;;;;22.47;20.73;;;;;;;;;;5061975;28;20437;-84
2022/10/30 02:45:30;;;;;;;22.33;20.67;;;;;;;;;;5062029;28;20429;-84
2022/10/30 02:47:59;;;;;;;21.80;20.10;;;;;;;;;;5061938;28;20416;-84
2022/10/30 02:50:27;;;;;;;25.53;20.50;;;;;;;;;;5061943;28;20430;-84
2022/10/30 02:52:55;;;;;;;22.43;20.50;;;;;;;;;;5061284;28;20502;-84
2022/10/30 02:55:24;;;;;;;23.40;21.30;;;;;;;;;;5061567;28;20439;-84
2022/10/30 02:57:51;;;;;;;22.23;20.50;;;;;;;;;;5062245;28;20462;-83
2022/10/30 03:00:19;;;;;;;23.47;21.50;;;;;;;;;;5061640;28;20443;-84
2022/10/30 03:02:46;;;;;;;23.20;20.93;;;;;;;;;;5061742;28;20462;-84
2022/10/30 03:05:15;;;;;;;26.70;23.90;;;;;;;;;;5060934;28;20962;-85
2022/10/30 03:07:43;;;;;;;23.13;20.83;;;;;;;;;;5061737;28;20434;-84
2022/10/30 03:10:10;;;;;;;22.60;20.63;;;;;;;;;;5061739;28;20451;-84
2022/10/30 03:12:39;;;;;;;22.50;20.67;;;;;;;;;;5060810;28;20812;-84
2022/10/30 03:15:07;;;;;;;22.20;20.40;;;;;;;;;;5061479;28;20933;-84
2022/10/30 03:17:34;;;;;;;23.67;21.20;;;;;;;;;;5061848;28;20419;-84
2022/10/30 03:20:02;;;;;;;24.30;21.93;;;;;;;;;;5062187;28;20453;-84
2022/10/30 03:22:29;;;;;;;22.03;20.60;;;;;;;;;;5061302;28;20459;-84
2022/10/30 03:24:57;;;;;;;23.60;21.50;;;;;;;;;;5061512;28;20463;-84
2022/10/30 03:27:24;;;;;;;22.60;20.93;;;;;;;;;;5060903;28;20541;-84
2022/10/30 03:29:53;;;;;;;27.20;24.93;;;;;;;;;;5061240;28;20781;-84
2022/10/30 03:32:20;;;;;;;22.00;20.60;;;;;;;;;;5060847;28;20422;-84
2022/10/30 03:34:47;;;;;;;22.93;20.93;;;;;;;;;;5060918;28;20498;-85
2022/10/30 03:37:15;;;;;;;22.43;20.67;;;;;;;;;;5061175;28;20428;-85
2022/10/30 03:39:42;;;;;;;27.43;20.13;;;;;;;;;;5061027;28;20454;-85
2022/10/30 03:42:09;;;;;;;21.73;20.10;;;;;;;;;;5061009;28;20447;-85
2022/10/30 03:44:37;;;;;;;23.60;21.13;;;;;;;;;;5060538;28;20450;-83
2022/10/30 03:47:06;;;;;;;22.80;20.90;;;;;;;;;;5060507;28;20413;-84
2022/10/30 03:49:33;;;;;;;23.37;21.20;;;;;;;;;;5060449;28;20448;-84
2022/10/30 03:52:01;;;;;;;22.93;20.90;;;;;;;;;;5060717;28;20428;-84
2022/10/30 03:54:28;;;;;;;29.20;21.90;;;;;;;;;;5061716;28;20463;-84
2022/10/30 03:56:55;;;;;;;23.90;21.80;;;;;;;;;;5060962;28;20439;-84
2022/10/30 03:59:23;;;;;;;23.90;21.40;;;;;;;;;;5060358;28;20430;-84
2022/10/30 04:01:50;;;;;;;25.90;23.67;;;;;;;;;;5060818;28;20446;-83
2022/10/30 04:04:19;;;;;;;22.17;20.53;;;;;;;;;;5060121;28;20458;-84
2022/10/30 04:06:52;;;;;;;22.00;20.43;;;;;;;;;;5059721;28;20472;-84
2022/10/30 04:09:20;;;;;;;27.93;20.47;;;;;;;;;;5060269;28;20421;-84
2022/10/30 04:11:47;;;;;;;22.83;20.83;;;;;;;;;;5059347;28;20925;-84
2022/10/30 04:14:14;;;;;;;23.53;21.80;;;;;;;;;;5060525;28;20484;-84
2022/10/30 04:16:42;;;;;;;22.60;20.83;;;;;;;;;;5059997;28;20913;-85
2022/10/30 04:19:09;;;;;;;22.30;20.27;;;;;;;;;;5060887;28;20418;-83
2022/10/30 04:21:38;;;;;;;23.73;21.53;;;;;;;;;;5059803;28;20454;-84
2022/10/30 04:24:05;;;;;;;21.80;20.30;;;;;;;;;;5060066;28;20434;-84
2022/10/30 04:26:33;;;;;;;22.17;20.43;;;;;;;;;;5059640;28;20437;-84
2022/10/30 04:29:00;;;;;;;22.33;20.73;;;;;;;;;;5060348;28;20429;-84
2022/10/30 04:31:27;;;;;;;20.70;19.37;;;;;;;;;;5060072;28;20457;-84
2022/10/30 04:33:55;;;;;;;22.83;21.23;;;;;;;;;;5059440;28;20472;-83
2022/10/30 04:36:28;;;;;;;22.90;20.60;;;;;;;;;;5060146;28;20419;-83
2022/10/30 04:38:57;;;;;;;22.70;20.70;;;;;;;;;;5059729;28;20435;-84
2022/10/30 04:41:25;;;;;;;22.97;21.33;;;;;;;;;;5058526;28;20452;-84
2022/10/30 04:43:52;;;;;;;23.10;20.90;;;;;;;;;;5058566;28;20434;-84
2022/10/30 04:46:20;;;;;;;22.53;20.53;;;;;;;;;;5059570;28;20435;-84
2022/10/30 04:48:47;;;;;;;23.23;20.90;;;;;;;;;;5059494;28;20447;-83
2022/10/30 04:51:14;;;;;;;23.07;21.20;;;;;;;;;;5059779;28;20466;-84
2022/10/30 04:53:42;;;;;;;23.40;21.90;;;;;;;;;;5057941;28;20479;-84
2022/10/30 04:56:10;;;;;;;22.53;20.33;;;;;;;;;;5059014;28;20455;-82
2022/10/30 04:58:38;;;;;;;23.50;21.30;;;;;;;;;;5059083;28;20450;-84
2022/10/30 05:01:06;;;;;;;24.10;22.40;;;;;;;;;;5058325;28;20451;-87
2022/10/30 05:03:33;;;;;;;23.53;21.93;;;;;;;;;;5056807;28;20461;-86
2022/10/30 05:06:03;;;;;;;23.77;20.83;;;;;;;;;;5057505;28;20417;-86
2022/10/30 05:08:31;;;;;;;22.27;20.77;;;;;;;;;;5056281;28;20471;-86
2022/10/30 05:10:58;;;;;;;22.70;21.07;;;;;;;;;;5056740;28;20425;-87
2022/10/30 05:13:27;;;;;;;24.50;21.93;;;;;;;;;;5057455;28;20490;-86
2022/10/30 05:15:55;;;;;;;23.40;21.40;;;;;;;;;;5055936;28;20958;-86
2022/10/30 05:18:22;;;;;;;24.57;22.27;;;;;;;;;;5057130;28;20446;-87
2022/10/30 05:20:50;;;;;;;23.80;21.40;;;;;;;;;;5056441;28;20433;-87
2022/10/30 05:23:17;;;;;;;22.43;20.17;;;;;;;;;;5054545;28;20543;-86
2022/10/30 05:25:48;;;;;;;22.73;20.90;;;;;;;;;;5057101;28;20450;-87
2022/10/30 05:28:16;;;;;;;23.90;21.87;;;;;;;;;;5057388;28;20424;-86
2022/10/30 05:30:45;;;;;;;23.83;22.10;;;;;;;;;;5057389;28;20489;-86
2022/10/30 05:33:14;;;;;;;27.27;24.80;;;;;;;;;;5055974;28;20821;-86
2022/10/30 05:35:42;;;;;;;22.80;20.80;;;;;;;;;;5058381;28;20405;-83
2022/10/30 05:38:09;;;;;;;23.53;21.50;;;;;;;;;;5058778;28;20420;-84
2022/10/30 05:40:37;;;;;;;24.03;21.60;;;;;;;;;;5059456;28;20428;-84
2022/10/30 05:43:05;;;;;;;22.67;21.13;;;;;;;;;;5058203;28;20437;-84
2022/10/30 05:45:32;;;;;;;21.93;20.30;;;;;;;;;;5059554;28;20425;-83
2022/10/30 05:48:02;;;;;;;22.67;20.87;;;;;;;;;;5058789;28;20425;-83
2022/10/30 05:50:30;;;;;;;22.73;21.33;;;;;;;;;;5059304;28;20462;-84
2022/10/30 05:52:58;;;;;;;22.53;20.97;;;;;;;;;;5057768;28;20490;-85
2022/10/30 05:55:26;;;;;;;24.37;22.47;;;;;;;;;;5061825;28;20452;-84
2022/10/30 05:57:56;;;;;;;23.20;21.57;;;;;;;;;;5062928;28;20425;-84
2022/10/30 06:00:24;;;;;;;25.60;23.27;;;;;;;;;;5063160;28;20386;-83
2022/10/30 06:02:51;;;;;;;23.57;21.77;;;;;;;;;;5061842;28;20453;-84
2022/10/30 06:05:21;;;;;;;23.77;21.70;;;;;;;;;;5062801;28;20474;-83
2022/10/30 06:07:48;;;;;;;23.70;21.87;;;;;;;;;;5062483;28;20456;-84
2022/10/30 06:10:15;;;;;;;24.80;22.90;;;;;;;;;;5062684;28;20421;-84
2022/10/30 06:12:43;;;;;;;22.00;20.70;;;;;;;;;;5062314;28;20943;-84
2022/10/30 06:15:10;;;;;;;23.60;21.47;;;;;;;;;;5060667;28;20469;-84
2022/10/30 06:17:38;;;;;;;24.50;22.70;;;;;;;;;;5062625;28;20433;-84
2022/10/30 06:20:05;;;;;;;24.77;22.53;;;;;;;;;;5062535;28;20450;-84
2022/10/30 06:22:34;;;;;;;24.27;22.43;;;;;;;;;;5061936;28;20433;-84
2022/10/30 06:25:02;;;;;;;24.47;22.10;;;;;;;;;;5059489;28;20453;-79
2022/10/30 06:27:29;;;;;;;24.03;22.33;;;;;;;;;;5058079;28;20524;-80
2022/10/30 06:29:56;;;;;;;24.30;22.50;;;;;;;;;;5058611;28;20942;-80
2022/10/30 06:32:23;;;;;;;23.60;21.70;;;;;;;;;;5058296;28;20450;-79
2022/10/30 06:34:51;;;;;;;23.77;22.17;;;;;;;;;;5059362;28;20495;-79
2022/10/30 06:37:18;;;;;;;23.60;21.60;;;;;;;;;;5060302;28;20433;-79
2022/10/30 06:39:47;;;;;;;26.93;22.20;;;;;;;;;;5060520;28;20449;-79
2022/10/30 06:42:15;;;;;;;24.23;22.23;;;;;;;;;;5058935;28;20454;-79
2022/10/30 06:44:43;;;;;;;23.87;22.00;;;;;;;;;;5058646;28;20430;-80
2022/10/30 06:47:10;;;;;;;24.30;22.00;;;;;;;;;;5058910;28;20416;-79
2022/10/30 06:49:38;;;;;;;25.03;22.47;;;;;;;;;;5057713;28;20444;-79
2022/10/30 06:52:05;;;;;;;23.80;21.80;;;;;;;;;;5058042;28;20436;-79
2022/10/30 06:54:33;;;;;;;24.67;22.67;;;;;;;;;;5058512;28;20457;-79
2022/10/30 06:57:02;;;;;;;23.67;22.17;;;;;;;;;;5058454;28;20425;-79
2022/10/30 06:59:29;;;;;;;23.13;21.40;;;;;;;;;;5058679;28;20446;-78
2022/10/30 07:01:56;;;;;;;25.43;23.40;;;;;;;;;;5056867;28;20466;-80
2022/10/30 07:04:23;;;;;;;23.47;21.60;;;;;;;;;;5058466;28;20444;-79
2022/10/30 07:06:51;;;;;;;24.13;22.57;;;;;;;;;;5057925;28;20440;-79
2022/10/30 07:09:18;;;;;;;26.03;21.80;;;;;;;;;;5057849;28;20461;-79
2022/10/30 07:11:46;;;;;;;23.67;21.67;;;;;;;;;;5057080;28;20436;-79
2022/10/30 07:14:15;;;;;;;24.30;22.10;;;;;;;;;;5055807;28;20461;-80
2022/10/30 07:16:43;;;;;;;23.47;21.47;;;;;;;;;;5058437;28;20435;-78
2022/10/30 07:19:10;;;;;;;23.30;21.37;;;;;;;;;;5061170;28;20439;-80
2022/10/30 07:21:37;;;;;;;28.00;21.53;;;;;;;;;;5062446;28;20450;-80
2022/10/30 07:24:05;;;;;;;23.47;21.37;;;;;;;;;;5058187;28;20474;-78
2022/10/30 07:26:36;;;;;;;22.47;20.97;;;;;;;;;;5056180;28;20444;-79
2022/10/30 07:29:04;;;;;;;23.37;21.13;;;;;;;;;;5055982;28;20430;-79
2022/10/30 07:31:33;;;;;;;22.37;20.77;;;;;;;;;;5055399;28;20432;-78
2022/10/30 07:34:00;;;;;;;22.67;21.27;;;;;;;;;;5055476;28;20476;-78
2022/10/30 07:36:27;;;;;;;23.60;21.60;;;;;;;;;;5055797;28;20440;-79
2022/10/30 07:38:55;;;;;;;23.47;21.57;;;;;;;;;;5056092;28;20462;-79
2022/10/30 07:41:22;;;;;;;22.87;21.10;;;;;;;;;;5056244;28;20461;-78
2022/10/30 07:43:49;;;;;;;22.73;21.20;;;;;;;;;;5056005;28;20445;-78
2022/10/30 07:46:17;;;;;;;24.70;22.17;;;;;;;;;;5056248;28;20451;-78
2022/10/30 07:48:46;;;;;;;24.07;22.03;;;;;;;;;;5055794;28;20421;-78
2022/10/30 07:51:14;;;;;;;22.27;20.47;;;;;;;;;;5055165;28;20417;-77
2022/10/30 07:53:41;;;;;;;22.20;20.60;;;;;;;;;;5055274;28;20468;-79
2022/10/30 07:56:08;;;;;;;22.17;20.20;;;;;;;;;;5055976;28;20868;-78
2022/10/30 07:58:36;;;;;;;21.33;19.77;;;;;;;;;;5055672;28;20435;-79
2022/10/30 08:01:04;;;;;;;21.27;19.83;;;;;;;;;;5054924;28;20852;-78
2022/10/30 08:03:31;;;;;;;23.13;20.90;;;;;;;;;;5056098;28;20445;-78
2022/10/30 08:06:00;;;;;;;22.70;20.70;;;;;;;;;;5055967;28;20450;-78
2022/10/30 08:08:27;;;;;;;21.27;19.67;;;;;;;;;;5054854;28;20436;-79
2022/10/30 08:10:54;;;;;;;22.57;20.47;;;;;;;;;;5054821;28;20430;-78
2022/10/30 08:13:22;;;;;;;20.53;19.00;;;;;;;;;;5061163;28;20467;-81
2022/10/30 08:15:49;;;;;;;22.33;20.40;;;;;;;;;;5060589;28;20453;-80
2022/10/30 08:18:17;;;;;;;22.10;20.30;;;;;;;;;;5059615;28;20435;-80
2022/10/30 08:20:48;;;;;;;21.47;20.07;;;;;;;;;;5061667;28;20425;-85
2022/10/30 08:23:18;;;;;;;20.67;18.97;;;;;;;;;;5061181;28;20449;-78
2022/10/30 08:25:46;;;;;;;21.03;19.50;;;;;;;;;;5060661;28;20893;-79
2022/10/30 08:28:14;;;;;;;19.93;18.73;;;;;;;;;;5057863;28;20484;-76
2022/10/30 08:30:42;;;;;;;21.57;18.93;;;;;;;;;;5054667;28;21023;-77
2022/10/30 08:33:13;;;;;;;21.47;19.87;;;;;;;;;;5057330;28;20440;-79
2022/10/30 08:35:47;;;;;;;20.97;19.57;;;;;;;;;;5055695;28;20472;-84
2022/10/30 08:38:15;;;;;;;20.67;19.20;;;;;;;;;;5055663;28;20890;-78
2022/10/30 08:40:45;;;;;;;20.97;19.67;;;;;;;;;;5052925;28;20420;-78
2022/10/30 08:43:12;;;;;;;21.23;19.37;;;;;;;;;;5052560;28;20482;-77
2022/10/30 08:45:40;;;;;;;21.27;19.70;;;;;;;;;;5057941;28;20425;-82
2022/10/30 08:48:07;;;;;;;21.50;19.90;;;;;;;;;;5062200;28;20439;-79
2022/10/30 08:50:35;;;;;;;21.77;20.13;;;;;;;;;;5060804;28;20417;-81
2022/10/30 08:53:03;;;;;;;20.20;18.77;;;;;;;;;;5051665;28;20462;-77
2022/10/30 08:55:30;;;;;;;20.37;19.13;;;;;;;;;;5054149;28;20470;-80
2022/10/30 08:57:59;;;;;;;21.00;19.50;;;;;;;;;;5059159;28;20429;-79
2022/10/30 09:00:27;;;;;;;21.10;19.50;;;;;;;;;;5060035;28;20455;-82
2022/10/30 09:02:54;;;;;;;21.37;19.17;;;;;;;;;;5059741;28;20454;-83
2022/10/30 09:05:21;;;;;;;19.67;18.07;;;;;;;;;;5058172;28;20442;-78
2022/10/30 09:07:49;;;;;;;20.97;19.33;;;;;;;;;;5054207;28;20437;-77
2022/10/30 09:10:17;;;;;;;20.40;18.90;;;;;;;;;;5052967;28;20450;-76
2022/10/30 09:12:44;;;;;;;21.03;19.37;;;;;;;;;;5051817;28;20457;-77
2022/10/30 09:15:13;;;;;;;20.23;18.70;;;;;;;;;;5052856;28;20480;-77
2022/10/30 09:17:41;;;;;;;21.70;20.10;;;;;;;;;;5052306;28;20972;-76
2022/10/30 09:20:09;;;;;;;21.97;20.23;;;;;;;;;;5052750;28;20447;-77
2022/10/30 09:22:42;;;;;;;22.90;21.10;;;;;;;;;;5051458;28;20457;-77
2022/10/30 09:25:09;;;;;;;21.50;20.00;;;;;;;;;;5052658;28;20493;-77
2022/10/30 09:27:38;;;;;;;21.67;19.80;;;;;;;;;;5052351;28;20467;-77
2022/10/30 09:30:06;;;;;;;20.70;18.90;;;;;;;;;;5055061;28;20426;-76
2022/10/30 09:32:35;;;;;;;22.43;20.33;;;;;;;;;;5055638;28;20921;-77
2022/10/30 09:35:02;;;;;;;22.17;20.40;;;;;;;;;;5055987;28;20471;-76
2022/10/30 09:37:30;;;;;;;21.10;19.67;;;;;;;;;;5056124;28;20442;-76
2022/10/30 09:39:58;;;;;;;21.30;19.67;;;;;;;;;;5056333;28;20575;-77
2022/10/30 09:42:35;;;;;;;22.80;20.47;;;;;;;;;;5056016;28;20430;-77
2022/10/30 09:45:08;;;;;;;24.13;22.03;;;;;;;;;;5056108;28;20892;-77
2022/10/30 09:47:41;;;;;;;22.83;20.90;;;;;;;;;;5056381;28;20425;-78
2022/10/30 09:50:17;;;;;;;22.83;21.00;;;;;;;;;;5056332;28;20411;-77
2022/10/30 09:52:51;;;;;;;20.50;18.93;;;;;;;;;;5054981;28;20998;-77
2022/10/30 09:55:25;;;;;;;22.10;20.30;;;;;;;;;;5056078;28;20453;-77
2022/10/30 09:57:57;;;;;;;21.53;19.73;;;;;;;;;;5056266;28;20809;-78
2022/10/30 10:00:28;;;;;;;20.77;19.20;;;;;;;;;;5056209;28;20409;-77
2022/10/30 10:03:08;;;;;;;22.20;20.50;;;;;;;;;;5053841;28;20470;-77
2022/10/30 10:05:39;;;;;;;21.97;19.97;;;;;;;;;;5055884;28;20428;-77
2022/10/30 10:08:09;;;;;;;22.47;20.93;;;;;;;;;;5055806;28;20757;-77
2022/10/30 10:10:39;;;;;;;22.50;20.57;;;;;;;;;;5057851;28;20460;-81
2022/10/30 10:13:10;;;;;;;22.70;20.90;;;;;;;;;;5060021;28;20844;-79
2022/10/30 10:15:40;;;;;;;23.03;21.50;;;;;;;;;;5058002;28;20792;-79
2022/10/30 10:18:15;;;;;;;22.80;20.83;;;;;;;;;;5058604;28;20419;-78
2022/10/30 10:20:44;;;;;;;21.70;20.27;;;;;;;;;;5057894;28;20971;-78
2022/10/30 10:23:15;;;;;;;23.63;21.73;;;;;;;;;;5057121;28;20874;-78
2022/10/30 10:25:49;;;;;;;22.63;20.80;;;;;;;;;;5058618;28;20441;-77
2022/10/30 10:28:22;;;;;;;23.97;22.50;;;;;;;;;;5058133;28;20464;-77
2022/10/30 10:30:51;;;;;;;24.77;22.30;;;;;;;;;;5058287;28;20416;-78
2022/10/30 10:33:27;;;;;;;23.53;21.63;;;;;;;;;;5056940;28;20483;-78
2022/10/30 10:35:59;;;;;;;23.60;22.00;;;;;;;;;;5058056;28;20985;-77
2022/10/30 10:38:34;;;;;;;24.60;22.60;;;;;;;;;;5057032;28;20411;-77
2022/10/30 10:41:06;;;;;;;23.77;22.07;;;;;;;;;;5055692;28;20412;-78
2022/10/30 10:43:39;;;;;;;25.37;23.00;;;;;;;;;;5057570;28;20473;-77
2022/10/30 10:46:22;;;;;;;25.00;22.70;;;;;;;;;;5057267;28;20401;-77
2022/10/30 10:48:55;;;;;;;24.17;22.47;;;;;;;;;;5057913;28;20905;-78
2022/10/30 10:51:25;;;;;;;24.13;21.67;;;;;;;;;;5057032;28;20876;-77
2022/10/30 10:53:56;;;;;;;23.90;22.10;;;;;;;;;;5056607;28;20467;-78
2022/10/30 10:56:28;;;;;;;23.97;22.37;;;;;;;;;;5057009;28;20444;-79
2022/10/30 10:58:57;;;;;;;22.83;21.33;;;;;;;;;;5057490;28;20409;-77
2022/10/30 11:01:33;;;;;;;22.23;20.70;;;;;;;;;;5057394;28;20430;-77
2022/10/30 11:04:04;;;;;;;21.73;20.37;;;;;;;;;;5056797;28;20878;-78
2022/10/30 11:06:33;;;;;;;25.50;23.70;;;;;;;;;;5057041;28;20435;-78
2022/10/30 11:09:12;;;;;;;24.27;22.40;;;;;;;;;;5057724;28;20461;-77
2022/10/30 11:11:40;;;;;;;25.07;22.50;;;;;;;;;;5056843;28;20441;-77
2022/10/30 11:14:11;;;;;;;23.80;21.73;;;;;;;;;;5056393;28;20956;-78
2022/10/30 11:16:52;;;;;;;24.33;21.80;;;;;;;;;;5057066;28;20980;-78
2022/10/30 11:19:21;;;;;;;23.57;22.00;;;;;;;;;;5057032;28;20408;-78
2022/10/30 11:21:49;;;;;;;23.67;21.57;;;;;;;;;;5056205;28;20472;-78
2022/10/30 11:24:26;;;;;;;24.33;22.40;;;;;;;;;;5057136;28;20481;-78
2022/10/30 11:26:55;;;;;;;23.23;21.83;;;;;;;;;;5056969;28;20859;-79
2022/10/30 11:29:24;;;;;;;23.40;21.77;;;;;;;;;;5057276;28;20450;-78
2022/10/30 11:32:02;;;;;;;24.07;22.13;;;;;;;;;;5059087;28;20428;-83
2022/10/30 11:34:35;;;;;;;23.30;21.60;;;;;;;;;;5063054;28;20473;-81
2022/10/30 11:37:02;;;;;;;22.80;21.37;;;;;;;;;;5062721;28;20959;-84
2022/10/30 11:39:31;;;;;;;23.47;21.87;;;;;;;;;;5061998;28;20473;-80
2022/10/30 11:42:01;;;;;;;23.73;21.67;;;;;;;;;;5064585;28;20457;-80
2022/10/30 11:44:31;;;;;;;24.40;22.20;;;;;;;;;;5060984;28;20478;-79
2022/10/30 11:46:59;;;;;;;23.63;21.83;;;;;;;;;;5062383;28;20426;-79
2022/10/30 11:49:28;;;;;;;24.03;22.40;;;;;;;;;;5063044;28;20427;-80
2022/10/30 11:51:57;;;;;;;23.80;22.20;;;;;;;;;;5059170;28;20447;-82
2022/10/30 11:54:24;;;;;;;24.20;22.30;;;;;;;;;;5059298;28;20797;-81
2022/10/30 11:56:52;;;;;;;24.10;22.27;;;;;;;;;;5065197;28;20468;-79
2022/10/30 11:59:21;;;;;;;23.80;22.00;;;;;;;;;;5061061;28;20458;-79
2022/10/30 12:01:58;;;;;;;23.67;22.07;;;;;;;;;;5064124;28;20850;-79
2022/10/30 12:04:27;;;;;;;22.83;21.33;;;;;;;;;;5059941;28;20482;-80
2022/10/30 12:07:07;;;;;;;24.00;21.97;;;;;;;;;;5058598;28;20450;-82
2022/10/30 12:09:43;;;;;;;23.80;22.10;;;;;;;;;;5060036;28;20431;-79
2022/10/30 12:12:12;;;;;;;24.17;22.47;;;;;;;;;;5059744;28;20450;-80
2022/10/30 12:14:39;;;;;;;24.27;22.57;;;;;;;;;;5059328;28;20489;-80
2022/10/30 12:17:07;;;;;;;24.10;22.07;;;;;;;;;;5060146;28;20489;-80
2022/10/30 12:19:36;;;;;;;22.60;20.90;;;;;;;;;;5059229;28;20442;-79
2022/10/30 12:22:03;;;;;;;23.37;21.17;;;;;;;;;;5060245;28;21086;-79
2022/10/30 12:24:32;;;;;;;23.57;21.83;;;;;;;;;;5061399;28;20470;-80
2022/10/30 12:27:04;;;;;;;22.90;21.40;;;;;;;;;;5060800;28;20454;-79
2022/10/30 12:29:39;;;;;;;23.23;21.80;;;;;;;;;;5060486;28;20448;-80
2022/10/30 12:32:09;;;;;;;24.10;21.87;;;;;;;;;;5060280;28;20788;-80
2022/10/30 12:34:40;;;;;;;23.20;21.50;;;;;;;;;;5059195;28;20478;-80
2022/10/30 12:37:10;;;;;;;23.47;21.80;;;;;;;;;;5060642;28;20452;-80
2022/10/30 12:39:45;;;;;;;23.67;21.90;;;;;;;;;;5060616;28;20453;-81
2022/10/30 12:42:15;;;;;;;24.40;22.60;;;;;;;;;;5059490;28;20438;-80
2022/10/30 12:44:45;;;;;;;25.00;22.93;;;;;;;;;;5059869;28;20498;-80
2022/10/30 12:47:14;;;;;;;23.00;21.40;;;;;;;;;;5060548;28;20961;-80
2022/10/30 12:49:42;;;;;;;24.37;22.67;;;;;;;;;;5060404;28;20420;-80
2022/10/30 12:52:12;;;;;;;24.03;22.23;;;;;;;;;;5059551;28;20452;-79
2022/10/30 12:54:42;;;;;;;23.23;21.70;;;;;;;;;;5061029;28;20467;-80
2022/10/30 12:57:12;;;;;;;24.50;22.70;;;;;;;;;;5060345;28;20474;-80
2022/10/30 12:59:49;;;;;;;22.87;21.20;;;;;;;;;;5059198;28;20944;-80
2022/10/30 13:02:24;;;;;;;23.47;21.10;;;;;;;;;;5059834;28;21155;-81
2022/10/30 13:04:56;;;;;;;23.53;21.70;;;;;;;;;;5059546;28;20416;-80
2022/10/30 13:07:27;;;;;;;22.40;20.80;;;;;;;;;;5060621;28;20409;-80
2022/10/30 13:10:02;;;;;;;22.83;21.23;;;;;;;;;;5059740;28;20427;-81
2022/10/30 13:12:33;;;;;;;22.40;20.43;;;;;;;;;;5059583;28;20434;-81
2022/10/30 13:15:04;;;;;;;23.50;21.27;;;;;;;;;;5059710;28;20494;-80
2022/10/30 13:17:31;;;;;;;23.97;21.77;;;;;;;;;;5059659;28;20478;-80
2022/10/30 13:19:59;;;;;;;23.30;21.50;;;;;;;;;;5059840;28;20452;-81
2022/10/30 13:22:30;;;;;;;23.13;21.50;;;;;;;;;;5059106;28;20436;-81
2022/10/30 13:25:01;;;;;;;23.93;21.83;;;;;;;;;;5060563;28;20442;-80
2022/10/30 13:27:31;;;;;;;18.67;17.77;;;;;;;;;;5060205;28;20454;-79
2022/10/30 13:30:01;;;;;;;28.77;25.80;;;;;;;;;;5059460;28;20439;-80
2022/10/30 13:32:35;;;;;;;23.27;21.60;;;;;;;;;;5060103;28;20420;-80
2022/10/30 13:35:09;;;;;;;23.60;21.80;;;;;;;;;;5059855;28;20477;-80
2022/10/30 13:37:40;;;;;;;23.93;21.90;;;;;;;;;;5059939;28;20482;-81
2022/10/30 13:40:14;;;;;;;23.53;21.80;;;;;;;;;;5059812;28;20445;-81
2022/10/30 13:42:47;;;;;;;23.80;21.40;;;;;;;;;;5058905;28;20437;-81
2022/10/30 13:45:33;;;;;;;23.30;21.40;;;;;;;;;;5058987;28;20483;-80
2022/10/30 13:48:07;;;;;;;24.00;22.30;;;;;;;;;;5059540;28;20448;-80
2022/10/30 13:50:43;;;;;;;23.93;21.70;;;;;;;;;;5058684;28;20918;-81
2022/10/30 13:53:15;;;;;;;24.70;22.80;;;;;;;;;;5059987;28;20824;-80
2022/10/30 13:55:42;;;;;;;23.30;21.67;;;;;;;;;;5060018;28;20448;-80
2022/10/30 13:58:16;;;;;;;23.33;21.73;;;;;;;;;;5058723;28;20460;-80
2022/10/30 14:00:54;;;;;;;23.37;21.47;;;;;;;;;;5058086;28;20409;-80
2022/10/30 14:03:31;;;;;;;24.57;22.47;;;;;;;;;;5058698;28;20469;-81
2022/10/30 14:06:04;;;;;;;24.67;22.60;;;;;;;;;;5058413;28;20428;-81
2022/10/30 14:08:37;;;;;;;23.73;21.80;;;;;;;;;;5058953;28;20434;-80
2022/10/30 14:11:05;;;;;;;23.87;21.97;;;;;;;;;;5058283;28;20415;-80
2022/10/30 14:13:45;;;;;;;23.17;21.20;;;;;;;;;;5058234;28;20489;-80
2022/10/30 14:16:27;;;;;;;25.43;21.87;;;;;;;;;;5060604;28;20462;-79
2022/10/30 14:19:02;;;;;;;24.17;22.33;;;;;;;;;;5061934;28;20431;-79
2022/10/30 14:21:32;;;;;;;22.13;20.83;;;;;;;;;;5061967;28;20453;-81
2022/10/30 14:24:02;;;;;;;25.97;23.77;;;;;;;;;;5060878;28;20481;-79
2022/10/30 14:26:30;;;;;;;24.27;22.47;;;;;;;;;;5060557;28;21244;-80
2022/10/30 14:28:57;;;;;;;22.90;21.37;;;;;;;;;;5061477;28;20801;-80